sensor_id;sensor_type;location;lat;lon;timestamp;P1;durP1;ratioP1;P2;durP2;ratioP2
37781;SDS011;23621;50.878;4.584;2023-06-14T00:01:02;6.72;;;6.13;;
37781;SDS011;23621;50.878;4.584;2023-06-14T00:03:49;8.25;;;6.03;;
37781;SDS011;23621;50.878;4.584;2023-06-14T00:06:37;6.75;;;6.05;;
37781;SDS011;23621;50.878;4.584;2023-06-14T00:09:24;6.97;;;6.22;;
37781;SDS011;23621;50.878;4.584;2023-06-14T00:12:11;7.05;;;6.35;;
37781;SDS011;23621;50.878;4.584;2023-06-14T00:14:59;7.05;;;6.22;;
37781;SDS011;23621;50.878;4.584;2023-06-14T00:17:48;6.68;;;6.13;;
37781;SDS011;23621;50.878;4.584;2023-06-14T00:20:35;6.60;;;6.03;;
37781;SDS011;23621;50.878;4.584;2023-06-14T00:23:23;10.25;;;7.00;;
37781;SDS011;23621;50.878;4.584;2023-06-14T00:26:10;7.13;;;6.43;;
37781;SDS011;23621;50.878;4.584;2023-06-14T00:28:58;7.63;;;6.25;;
37781;SDS011;23621;50.878;4.584;2023-06-14T00:31:45;7.35;;;6.63;;
37781;SDS011;23621;50.878;4.584;2023-06-14T00:34:32;7.28;;;6.50;;
37781;SDS011;23621;50.878;4.584;2023-06-14T00:37:19;7.07;;;6.38;;
37781;SDS011;23621;50.878;4.584;2023-06-14T00:40:07;6.75;;;6.15;;
37781;SDS011;23621;50.878;4.584;2023-06-14T00:42:55;7.43;;;6.38;;
37781;SDS011;23621;50.878;4.584;2023-06-14T00:45:42;7.68;;;6.82;;
37781;SDS011;23621;50.878;4.584;2023-06-14T00:48:29;6.90;;;6.30;;
37781;SDS011;23621;50.878;4.584;2023-06-14T00:51:18;7.32;;;6.63;;
37781;SDS011;23621;50.878;4.584;2023-06-14T00:54:05;6.47;;;5.88;;
37781;SDS011;23621;50.878;4.584;2023-06-14T00:56:52;6.88;;;6.10;;
37781;SDS011;23621;50.878;4.584;2023-06-14T00:59:44;7.32;;;6.45;;
37781;SDS011;23621;50.878;4.584;2023-06-14T01:02:33;7.30;;;6.60;;
37781;SDS011;23621;50.878;4.584;2023-06-14T01:05:20;9.52;;;6.97;;
37781;SDS011;23621;50.878;4.584;2023-06-14T01:08:24;7.05;;;6.45;;
37781;SDS011;23621;50.878;4.584;2023-06-14T01:11:50;7.10;;;6.40;;
37781;SDS011;23621;50.878;4.584;2023-06-14T01:14:42;6.97;;;6.38;;
37781;SDS011;23621;50.878;4.584;2023-06-14T01:17:31;7.35;;;6.28;;
37781;SDS011;23621;50.878;4.584;2023-06-14T01:20:21;7.18;;;6.13;;
37781;SDS011;23621;50.878;4.584;2023-06-14T01:23:09;8.73;;;6.75;;
37781;SDS011;23621;50.878;4.584;2023-06-14T01:25:59;9.07;;;6.80;;
37781;SDS011;23621;50.878;4.584;2023-06-14T01:28:49;6.97;;;6.28;;
37781;SDS011;23621;50.878;4.584;2023-06-14T01:31:42;7.38;;;6.32;;
37781;SDS011;23621;50.878;4.584;2023-06-14T01:34:32;7.18;;;6.40;;
37781;SDS011;23621;50.878;4.584;2023-06-14T01:37:19;6.70;;;6.10;;
37781;SDS011;23621;50.878;4.584;2023-06-14T01:40:08;7.03;;;6.38;;
37781;SDS011;23621;50.878;4.584;2023-06-14T01:42:57;8.23;;;6.53;;
37781;SDS011;23621;50.878;4.584;2023-06-14T01:45:47;7.30;;;6.68;;
37781;SDS011;23621;50.878;4.584;2023-06-14T01:48:38;6.95;;;6.25;;
37781;SDS011;23621;50.878;4.584;2023-06-14T01:51:25;8.80;;;7.00;;
37781;SDS011;23621;50.878;4.584;2023-06-14T01:54:13;7.28;;;6.40;;
37781;SDS011;23621;50.878;4.584;2023-06-14T01:57:00;8.98;;;6.75;;
37781;SDS011;23621;50.878;4.584;2023-06-14T01:59:47;7.47;;;6.28;;
37781;SDS011;23621;50.878;4.584;2023-06-14T02:02:35;7.05;;;6.43;;
37781;SDS011;23621;50.878;4.584;2023-06-14T02:05:22;8.18;;;6.47;;
37781;SDS011;23621;50.878;4.584;2023-06-14T02:08:10;7.25;;;6.65;;
37781;SDS011;23621;50.878;4.584;2023-06-14T02:10:58;6.78;;;6.18;;
37781;SDS011;23621;50.878;4.584;2023-06-14T02:13:45;7.05;;;6.35;;
37781;SDS011;23621;50.878;4.584;2023-06-14T02:16:32;9.70;;;6.60;;
37781;SDS011;23621;50.878;4.584;2023-06-14T02:19:22;7.07;;;6.38;;
37781;SDS011;23621;50.878;4.584;2023-06-14T02:22:10;8.20;;;7.10;;
37781;SDS011;23621;50.878;4.584;2023-06-14T02:24:57;8.75;;;7.43;;
37781;SDS011;23621;50.878;4.584;2023-06-14T02:27:48;7.35;;;6.65;;
37781;SDS011;23621;50.878;4.584;2023-06-14T02:30:35;7.50;;;6.85;;
37781;SDS011;23621;50.878;4.584;2023-06-14T02:33:23;7.30;;;6.60;;
37781;SDS011;23621;50.878;4.584;2023-06-14T02:36:11;7.55;;;6.93;;
37781;SDS011;23621;50.878;4.584;2023-06-14T02:38:58;7.60;;;6.90;;
37781;SDS011;23621;50.878;4.584;2023-06-14T02:41:46;7.18;;;6.47;;
37781;SDS011;23621;50.878;4.584;2023-06-14T02:44:33;7.53;;;6.82;;
37781;SDS011;23621;50.878;4.584;2023-06-14T02:47:21;7.38;;;6.78;;
37781;SDS011;23621;50.878;4.584;2023-06-14T02:50:09;7.57;;;6.85;;
37781;SDS011;23621;50.878;4.584;2023-06-14T02:52:56;8.65;;;7.35;;
37781;SDS011;23621;50.878;4.584;2023-06-14T02:55:43;7.97;;;7.25;;
37781;SDS011;23621;50.878;4.584;2023-06-14T02:58:33;8.15;;;7.38;;
37781;SDS011;23621;50.878;4.584;2023-06-14T03:01:25;8.20;;;7.13;;
37781;SDS011;23621;50.878;4.584;2023-06-14T03:04:20;7.40;;;6.80;;
37781;SDS011;23621;50.878;4.584;2023-06-14T03:07:08;8.73;;;7.63;;
37781;SDS011;23621;50.878;4.584;2023-06-14T03:09:58;9.63;;;7.60;;
37781;SDS011;23621;50.878;4.584;2023-06-14T03:12:46;8.50;;;7.68;;
37781;SDS011;23621;50.878;4.584;2023-06-14T03:15:33;9.77;;;7.35;;
37781;SDS011;23621;50.878;4.584;2023-06-14T03:18:21;8.18;;;7.38;;
37781;SDS011;23621;50.878;4.584;2023-06-14T03:21:13;8.27;;;7.57;;
37781;SDS011;23621;50.878;4.584;2023-06-14T03:24:02;8.43;;;7.63;;
37781;SDS011;23621;50.878;4.584;2023-06-14T03:26:50;9.13;;;8.20;;
37781;SDS011;23621;50.878;4.584;2023-06-14T03:29:37;8.40;;;7.47;;
37781;SDS011;23621;50.878;4.584;2023-06-14T03:32:24;9.75;;;8.45;;
37781;SDS011;23621;50.878;4.584;2023-06-14T03:35:12;9.70;;;8.00;;
37781;SDS011;23621;50.878;4.584;2023-06-14T03:38:04;9.38;;;8.32;;
37781;SDS011;23621;50.878;4.584;2023-06-14T03:40:51;9.48;;;7.65;;
37781;SDS011;23621;50.878;4.584;2023-06-14T03:43:38;8.32;;;7.53;;
37781;SDS011;23621;50.878;4.584;2023-06-14T03:46:26;8.70;;;7.90;;
37781;SDS011;23621;50.878;4.584;2023-06-14T03:49:13;8.30;;;7.50;;
37781;SDS011;23621;50.878;4.584;2023-06-14T03:52:03;9.45;;;7.50;;
37781;SDS011;23621;50.878;4.584;2023-06-14T03:54:50;8.95;;;8.15;;
37781;SDS011;23621;50.878;4.584;2023-06-14T03:57:41;8.23;;;7.43;;
37781;SDS011;23621;50.878;4.584;2023-06-14T04:00:28;11.90;;;8.50;;
37781;SDS011;23621;50.878;4.584;2023-06-14T04:03:15;10.57;;;8.40;;
37781;SDS011;23621;50.878;4.584;2023-06-14T04:06:04;12.02;;;8.80;;
37781;SDS011;23621;50.878;4.584;2023-06-14T04:08:52;22.77;;;9.40;;
37781;SDS011;23621;50.878;4.584;2023-06-14T04:11:40;14.77;;;8.70;;
37781;SDS011;23621;50.878;4.584;2023-06-14T04:14:27;11.23;;;8.38;;
37781;SDS011;23621;50.878;4.584;2023-06-14T04:17:14;10.90;;;8.52;;
37781;SDS011;23621;50.878;4.584;2023-06-14T04:20:02;11.90;;;8.90;;
37781;SDS011;23621;50.878;4.584;2023-06-14T04:22:53;10.70;;;8.65;;
37781;SDS011;23621;50.878;4.584;2023-06-14T04:25:40;9.27;;;8.38;;
37781;SDS011;23621;50.878;4.584;2023-06-14T04:28:31;10.57;;;8.90;;
37781;SDS011;23621;50.878;4.584;2023-06-14T04:31:18;11.18;;;8.63;;
37781;SDS011;23621;50.878;4.584;2023-06-14T04:34:08;9.05;;;8.15;;
37781;SDS011;23621;50.878;4.584;2023-06-14T04:37:02;14.23;;;7.63;;
37781;SDS011;23621;50.878;4.584;2023-06-14T04:39:50;12.00;;;8.75;;
37781;SDS011;23621;50.878;4.584;2023-06-14T04:42:38;10.60;;;7.93;;
37781;SDS011;23621;50.878;4.584;2023-06-14T04:45:27;8.73;;;7.80;;
37781;SDS011;23621;50.878;4.584;2023-06-14T04:48:18;8.80;;;7.90;;
37781;SDS011;23621;50.878;4.584;2023-06-14T04:51:07;10.52;;;8.93;;
37781;SDS011;23621;50.878;4.584;2023-06-14T04:53:55;8.32;;;7.25;;
37781;SDS011;23621;50.878;4.584;2023-06-14T04:56:46;9.60;;;8.70;;
37781;SDS011;23621;50.878;4.584;2023-06-14T04:59:33;12.00;;;8.07;;
37781;SDS011;23621;50.878;4.584;2023-06-14T05:02:22;10.25;;;8.40;;
37781;SDS011;23621;50.878;4.584;2023-06-14T05:05:10;8.95;;;8.15;;
37781;SDS011;23621;50.878;4.584;2023-06-14T05:07:58;9.55;;;8.57;;
37781;SDS011;23621;50.878;4.584;2023-06-14T05:10:45;9.13;;;7.82;;
37781;SDS011;23621;50.878;4.584;2023-06-14T05:13:32;9.02;;;8.02;;
37781;SDS011;23621;50.878;4.584;2023-06-14T05:16:21;10.77;;;8.32;;
37781;SDS011;23621;50.878;4.584;2023-06-14T05:19:09;11.80;;;9.15;;
37781;SDS011;23621;50.878;4.584;2023-06-14T05:21:57;9.10;;;8.20;;
37781;SDS011;23621;50.878;4.584;2023-06-14T05:24:44;12.23;;;9.23;;
37781;SDS011;23621;50.878;4.584;2023-06-14T05:27:32;10.38;;;8.88;;
37781;SDS011;23621;50.878;4.584;2023-06-14T05:30:22;10.30;;;9.30;;
37781;SDS011;23621;50.878;4.584;2023-06-14T05:33:09;9.95;;;8.93;;
37781;SDS011;23621;50.878;4.584;2023-06-14T05:35:57;10.05;;;9.02;;
37781;SDS011;23621;50.878;4.584;2023-06-14T05:38:44;9.70;;;8.80;;
37781;SDS011;23621;50.878;4.584;2023-06-14T05:41:32;10.45;;;9.10;;
37781;SDS011;23621;50.878;4.584;2023-06-14T05:44:19;10.13;;;9.13;;
37781;SDS011;23621;50.878;4.584;2023-06-14T05:47:06;9.35;;;8.45;;
37781;SDS011;23621;50.878;4.584;2023-06-14T05:49:54;9.82;;;8.93;;
37781;SDS011;23621;50.878;4.584;2023-06-14T05:52:41;14.40;;;9.10;;
37781;SDS011;23621;50.878;4.584;2023-06-14T05:55:29;9.75;;;8.80;;
37781;SDS011;23621;50.878;4.584;2023-06-14T05:58:16;10.50;;;9.05;;
37781;SDS011;23621;50.878;4.584;2023-06-14T06:01:03;9.50;;;8.60;;
37781;SDS011;23621;50.878;4.584;2023-06-14T06:03:51;10.85;;;7.97;;
37781;SDS011;23621;50.878;4.584;2023-06-14T06:06:38;10.00;;;8.98;;
37781;SDS011;23621;50.878;4.584;2023-06-14T06:09:26;10.30;;;8.85;;
37781;SDS011;23621;50.878;4.584;2023-06-14T06:12:13;10.32;;;9.25;;
37781;SDS011;23621;50.878;4.584;2023-06-14T06:15:00;11.05;;;8.95;;
37781;SDS011;23621;50.878;4.584;2023-06-14T06:17:48;11.60;;;8.93;;
37781;SDS011;23621;50.878;4.584;2023-06-14T06:20:42;9.52;;;8.63;;
37781;SDS011;23621;50.878;4.584;2023-06-14T06:23:30;9.85;;;8.80;;
37781;SDS011;23621;50.878;4.584;2023-06-14T06:26:17;10.43;;;8.13;;
37781;SDS011;23621;50.878;4.584;2023-06-14T06:29:05;10.18;;;7.75;;
37781;SDS011;23621;50.878;4.584;2023-06-14T06:31:52;9.45;;;8.40;;
37781;SDS011;23621;50.878;4.584;2023-06-14T06:34:39;9.40;;;8.50;;
37781;SDS011;23621;50.878;4.584;2023-06-14T06:37:27;10.00;;;7.50;;
37781;SDS011;23621;50.878;4.584;2023-06-14T06:40:14;9.98;;;7.57;;
37781;SDS011;23621;50.878;4.584;2023-06-14T06:43:02;9.18;;;7.50;;
37781;SDS011;23621;50.878;4.584;2023-06-14T06:45:49;9.48;;;8.32;;
37781;SDS011;23621;50.878;4.584;2023-06-14T06:48:37;10.35;;;8.10;;
37781;SDS011;23621;50.878;4.584;2023-06-14T06:51:24;10.63;;;7.80;;
37781;SDS011;23621;50.878;4.584;2023-06-14T06:54:11;9.32;;;7.97;;
37781;SDS011;23621;50.878;4.584;2023-06-14T06:56:58;8.68;;;7.65;;
37781;SDS011;23621;50.878;4.584;2023-06-14T06:59:47;14.15;;;7.75;;
37781;SDS011;23621;50.878;4.584;2023-06-14T07:02:34;10.02;;;7.90;;
37781;SDS011;23621;50.878;4.584;2023-06-14T07:05:23;9.93;;;8.35;;
37781;SDS011;23621;50.878;4.584;2023-06-14T07:08:10;8.82;;;7.00;;
37781;SDS011;23621;50.878;4.584;2023-06-14T07:10:58;9.75;;;8.00;;
37781;SDS011;23621;50.878;4.584;2023-06-14T07:13:45;9.73;;;7.10;;
37781;SDS011;23621;50.878;4.584;2023-06-14T07:16:32;14.10;;;7.72;;
37781;SDS011;23621;50.878;4.584;2023-06-14T07:19:20;8.77;;;7.60;;
37781;SDS011;23621;50.878;4.584;2023-06-14T07:22:07;11.75;;;7.32;;
37781;SDS011;23621;50.878;4.584;2023-06-14T07:24:54;10.52;;;7.18;;
37781;SDS011;23621;50.878;4.584;2023-06-14T07:27:42;11.30;;;7.50;;
37781;SDS011;23621;50.878;4.584;2023-06-14T07:30:30;13.20;;;6.90;;
37781;SDS011;23621;50.878;4.584;2023-06-14T07:33:17;8.82;;;7.25;;
37781;SDS011;23621;50.878;4.584;2023-06-14T07:36:05;8.52;;;7.03;;
37781;SDS011;23621;50.878;4.584;2023-06-14T07:38:52;8.57;;;7.03;;
37781;SDS011;23621;50.878;4.584;2023-06-14T07:41:39;8.57;;;7.32;;
37781;SDS011;23621;50.878;4.584;2023-06-14T07:44:29;8.00;;;7.15;;
37781;SDS011;23621;50.878;4.584;2023-06-14T07:47:17;7.78;;;6.57;;
37781;SDS011;23621;50.878;4.584;2023-06-14T07:50:05;10.48;;;7.32;;
37781;SDS011;23621;50.878;4.584;2023-06-14T07:52:52;11.52;;;6.88;;
37781;SDS011;23621;50.878;4.584;2023-06-14T07:55:39;8.68;;;6.88;;
37781;SDS011;23621;50.878;4.584;2023-06-14T07:58:39;8.88;;;6.85;;
37781;SDS011;23621;50.878;4.584;2023-06-14T08:01:26;7.45;;;6.45;;
37781;SDS011;23621;50.878;4.584;2023-06-14T08:04:14;8.48;;;6.90;;
37781;SDS011;23621;50.878;4.584;2023-06-14T08:07:02;7.97;;;6.80;;
37781;SDS011;23621;50.878;4.584;2023-06-14T08:09:53;8.50;;;6.93;;
37781;SDS011;23621;50.878;4.584;2023-06-14T08:12:40;11.30;;;6.05;;
37781;SDS011;23621;50.878;4.584;2023-06-14T08:15:27;7.75;;;6.95;;
37781;SDS011;23621;50.878;4.584;2023-06-14T08:18:14;7.68;;;6.88;;
37781;SDS011;23621;50.878;4.584;2023-06-14T08:21:02;9.93;;;6.75;;
37781;SDS011;23621;50.878;4.584;2023-06-14T08:23:49;8.40;;;6.95;;
37781;SDS011;23621;50.878;4.584;2023-06-14T08:26:39;8.02;;;7.22;;
37781;SDS011;23621;50.878;4.584;2023-06-14T08:29:27;7.03;;;6.40;;
37781;SDS011;23621;50.878;4.584;2023-06-14T08:32:16;7.45;;;6.75;;
37781;SDS011;23621;50.878;4.584;2023-06-14T08:35:03;10.25;;;6.57;;
37781;SDS011;23621;50.878;4.584;2023-06-14T08:37:52;7.50;;;6.40;;
37781;SDS011;23621;50.878;4.584;2023-06-14T08:40:40;8.38;;;6.15;;
37781;SDS011;23621;50.878;4.584;2023-06-14T08:43:28;10.88;;;7.30;;
37781;SDS011;23621;50.878;4.584;2023-06-14T08:46:17;9.20;;;6.43;;
37781;SDS011;23621;50.878;4.584;2023-06-14T08:49:06;11.32;;;7.10;;
37781;SDS011;23621;50.878;4.584;2023-06-14T08:52:00;9.40;;;6.68;;
37781;SDS011;23621;50.878;4.584;2023-06-14T08:54:47;9.30;;;6.75;;
37781;SDS011;23621;50.878;4.584;2023-06-14T08:57:36;10.00;;;7.38;;
37781;SDS011;23621;50.878;4.584;2023-06-14T09:00:25;11.05;;;7.32;;
37781;SDS011;23621;50.878;4.584;2023-06-14T09:03:13;9.77;;;6.70;;
37781;SDS011;23621;50.878;4.584;2023-06-14T09:06:01;10.60;;;7.38;;
37781;SDS011;23621;50.878;4.584;2023-06-14T09:08:50;10.43;;;7.00;;
37781;SDS011;23621;50.878;4.584;2023-06-14T09:11:41;9.95;;;6.82;;
37781;SDS011;23621;50.878;4.584;2023-06-14T09:14:29;7.75;;;6.93;;
37781;SDS011;23621;50.878;4.584;2023-06-14T09:17:16;11.13;;;7.03;;
37781;SDS011;23621;50.878;4.584;2023-06-14T09:20:04;7.15;;;6.43;;
37781;SDS011;23621;50.878;4.584;2023-06-14T09:22:53;9.65;;;6.50;;
37781;SDS011;23621;50.878;4.584;2023-06-14T09:25:43;10.00;;;6.90;;
37781;SDS011;23621;50.878;4.584;2023-06-14T09:28:32;8.05;;;6.80;;
37781;SDS011;23621;50.878;4.584;2023-06-14T09:31:20;7.40;;;6.38;;
37781;SDS011;23621;50.878;4.584;2023-06-14T09:34:08;7.50;;;6.80;;
37781;SDS011;23621;50.878;4.584;2023-06-14T09:36:56;8.70;;;6.47;;
37781;SDS011;23621;50.878;4.584;2023-06-14T09:39:49;9.77;;;6.80;;
37781;SDS011;23621;50.878;4.584;2023-06-14T09:42:37;9.95;;;5.95;;
37781;SDS011;23621;50.878;4.584;2023-06-14T09:45:25;7.93;;;6.30;;
37781;SDS011;23621;50.878;4.584;2023-06-14T09:48:16;12.88;;;6.47;;
37781;SDS011;23621;50.878;4.584;2023-06-14T09:51:05;7.88;;;6.38;;
37781;SDS011;23621;50.878;4.584;2023-06-14T09:53:52;6.93;;;5.35;;
37781;SDS011;23621;50.878;4.584;2023-06-14T09:56:45;8.45;;;5.32;;
37781;SDS011;23621;50.878;4.584;2023-06-14T09:59:35;8.40;;;5.05;;
37781;SDS011;23621;50.878;4.584;2023-06-14T10:02:26;8.07;;;5.43;;
37781;SDS011;23621;50.878;4.584;2023-06-14T10:05:18;8.40;;;5.25;;
37781;SDS011;23621;50.878;4.584;2023-06-14T10:08:08;6.00;;;4.88;;
37781;SDS011;23621;50.878;4.584;2023-06-14T10:10:56;6.72;;;5.20;;
37781;SDS011;23621;50.878;4.584;2023-06-14T10:13:44;8.48;;;5.07;;
37781;SDS011;23621;50.878;4.584;2023-06-14T10:16:42;6.65;;;4.60;;
37781;SDS011;23621;50.878;4.584;2023-06-14T10:19:50;6.50;;;5.40;;
37781;SDS011;23621;50.878;4.584;2023-06-14T10:22:58;8.30;;;5.30;;
37781;SDS011;23621;50.878;4.584;2023-06-14T10:25:50;6.97;;;4.78;;
37781;SDS011;23621;50.878;4.584;2023-06-14T10:28:42;6.38;;;4.90;;
37781;SDS011;23621;50.878;4.584;2023-06-14T10:31:57;5.10;;;4.10;;
37781;SDS011;23621;50.878;4.584;2023-06-14T10:34:45;5.00;;;4.13;;
37781;SDS011;23621;50.878;4.584;2023-06-14T10:37:39;7.53;;;4.40;;
37781;SDS011;23621;50.878;4.584;2023-06-14T10:40:30;5.15;;;4.22;;
37781;SDS011;23621;50.878;4.584;2023-06-14T10:43:21;5.25;;;4.20;;
37781;SDS011;23621;50.878;4.584;2023-06-14T10:46:18;5.53;;;4.47;;
37781;SDS011;23621;50.878;4.584;2023-06-14T10:49:09;5.18;;;4.43;;
37781;SDS011;23621;50.878;4.584;2023-06-14T10:51:57;5.10;;;4.13;;
37781;SDS011;23621;50.878;4.584;2023-06-14T10:58:08;6.18;;;5.10;;
37781;SDS011;23621;50.878;4.584;2023-06-14T11:00:56;5.82;;;3.90;;
37781;SDS011;23621;50.878;4.584;2023-06-14T11:03:45;4.00;;;3.60;;
37781;SDS011;23621;50.878;4.584;2023-06-14T11:06:46;4.43;;;3.92;;
37781;SDS011;23621;50.878;4.584;2023-06-14T11:09:43;4.70;;;4.22;;
37781;SDS011;23621;50.878;4.584;2023-06-14T11:12:47;4.50;;;4.10;;
37781;SDS011;23621;50.878;4.584;2023-06-14T11:15:36;6.60;;;4.57;;
37781;SDS011;23621;50.878;4.584;2023-06-14T11:18:24;7.40;;;4.35;;
37781;SDS011;23621;50.878;4.584;2023-06-14T11:21:15;6.38;;;3.97;;
37781;SDS011;23621;50.878;4.584;2023-06-14T11:24:03;6.40;;;4.18;;
37781;SDS011;23621;50.878;4.584;2023-06-14T11:26:50;5.45;;;3.97;;
37781;SDS011;23621;50.878;4.584;2023-06-14T11:29:37;7.70;;;4.72;;
37781;SDS011;23621;50.878;4.584;2023-06-14T11:32:25;6.38;;;4.82;;
37781;SDS011;23621;50.878;4.584;2023-06-14T11:35:12;7.82;;;4.15;;
37781;SDS011;23621;50.878;4.584;2023-06-14T11:38:01;5.25;;;4.22;;
37781;SDS011;23621;50.878;4.584;2023-06-14T11:40:48;4.43;;;3.95;;
37781;SDS011;23621;50.878;4.584;2023-06-14T11:43:35;4.38;;;3.88;;
37781;SDS011;23621;50.878;4.584;2023-06-14T11:46:25;4.07;;;3.67;;
37781;SDS011;23621;50.878;4.584;2023-06-14T11:49:14;4.57;;;3.70;;
37781;SDS011;23621;50.878;4.584;2023-06-14T11:52:01;6.22;;;3.90;;
37781;SDS011;23621;50.878;4.584;2023-06-14T11:54:48;6.00;;;4.05;;
37781;SDS011;23621;50.878;4.584;2023-06-14T11:57:36;6.25;;;3.92;;
37781;SDS011;23621;50.878;4.584;2023-06-14T12:00:25;5.45;;;4.05;;
37781;SDS011;23621;50.878;4.584;2023-06-14T12:03:14;4.97;;;3.88;;
37781;SDS011;23621;50.878;4.584;2023-06-14T12:06:02;6.57;;;3.80;;
37781;SDS011;23621;50.878;4.584;2023-06-14T12:08:56;6.53;;;4.10;;
37781;SDS011;23621;50.878;4.584;2023-06-14T12:11:44;6.75;;;3.80;;
37781;SDS011;23621;50.878;4.584;2023-06-14T12:14:31;5.72;;;3.92;;
37781;SDS011;23621;50.878;4.584;2023-06-14T12:17:18;7.10;;;3.78;;
37781;SDS011;23621;50.878;4.584;2023-06-14T12:20:10;7.07;;;3.95;;
37781;SDS011;23621;50.878;4.584;2023-06-14T12:23:03;4.55;;;3.90;;
37781;SDS011;23621;50.878;4.584;2023-06-14T12:25:51;6.90;;;3.35;;
37781;SDS011;23621;50.878;4.584;2023-06-14T12:28:39;4.43;;;3.38;;
37781;SDS011;23621;50.878;4.584;2023-06-14T12:31:28;4.70;;;3.60;;
37781;SDS011;23621;50.878;4.584;2023-06-14T12:34:16;6.55;;;3.72;;
37781;SDS011;23621;50.878;4.584;2023-06-14T12:37:03;4.30;;;3.70;;
37781;SDS011;23621;50.878;4.584;2023-06-14T12:39:51;7.10;;;4.00;;
37781;SDS011;23621;50.878;4.584;2023-06-14T12:42:38;5.38;;;4.00;;
37781;SDS011;23621;50.878;4.584;2023-06-14T12:45:26;4.50;;;3.67;;
37781;SDS011;23621;50.878;4.584;2023-06-14T12:48:13;5.00;;;3.70;;
37781;SDS011;23621;50.878;4.584;2023-06-14T12:51:01;5.75;;;3.70;;
37781;SDS011;23621;50.878;4.584;2023-06-14T12:53:49;4.53;;;3.30;;
37781;SDS011;23621;50.878;4.584;2023-06-14T12:56:36;4.07;;;3.50;;
37781;SDS011;23621;50.878;4.584;2023-06-14T12:59:24;3.30;;;3.00;;
37781;SDS011;23621;50.878;4.584;2023-06-14T13:02:12;3.80;;;3.33;;
37781;SDS011;23621;50.878;4.584;2023-06-14T13:05:00;4.97;;;3.30;;
37781;SDS011;23621;50.878;4.584;2023-06-14T13:07:50;3.40;;;3.10;;
37781;SDS011;23621;50.878;4.584;2023-06-14T13:10:37;5.75;;;2.85;;
37781;SDS011;23621;50.878;4.584;2023-06-14T13:13:25;6.47;;;3.10;;
37781;SDS011;23621;50.878;4.584;2023-06-14T13:16:12;3.85;;;2.97;;
37781;SDS011;23621;50.878;4.584;2023-06-14T13:19:01;3.65;;;2.95;;
37781;SDS011;23621;50.878;4.584;2023-06-14T13:21:49;3.22;;;2.90;;
37781;SDS011;23621;50.878;4.584;2023-06-14T13:24:36;3.90;;;2.90;;
37781;SDS011;23621;50.878;4.584;2023-06-14T13:27:23;5.38;;;3.08;;
37781;SDS011;23621;50.878;4.584;2023-06-14T13:30:12;4.25;;;2.83;;
37781;SDS011;23621;50.878;4.584;2023-06-14T13:33:00;3.83;;;2.80;;
37781;SDS011;23621;50.878;4.584;2023-06-14T13:35:47;2.50;;;2.30;;
37781;SDS011;23621;50.878;4.584;2023-06-14T13:38:35;4.93;;;3.33;;
37781;SDS011;23621;50.878;4.584;2023-06-14T13:41:22;3.72;;;2.72;;
37781;SDS011;23621;50.878;4.584;2023-06-14T13:44:09;3.92;;;2.42;;
37781;SDS011;23621;50.878;4.584;2023-06-14T13:47:02;3.45;;;2.30;;
37781;SDS011;23621;50.878;4.584;2023-06-14T13:49:50;3.47;;;2.42;;
37781;SDS011;23621;50.878;4.584;2023-06-14T13:52:37;3.90;;;2.30;;
37781;SDS011;23621;50.878;4.584;2023-06-14T13:55:24;2.65;;;2.20;;
37781;SDS011;23621;50.878;4.584;2023-06-14T13:58:12;2.80;;;1.85;;
37781;SDS011;23621;50.878;4.584;2023-06-14T14:01:01;3.00;;;2.00;;
37781;SDS011;23621;50.878;4.584;2023-06-14T14:03:48;3.08;;;2.13;;
37781;SDS011;23621;50.878;4.584;2023-06-14T14:06:36;5.03;;;2.28;;
37781;SDS011;23621;50.878;4.584;2023-06-14T14:09:23;2.30;;;2.10;;
37781;SDS011;23621;50.878;4.584;2023-06-14T14:12:11;5.43;;;1.90;;
37781;SDS011;23621;50.878;4.584;2023-06-14T14:14:58;2.10;;;1.80;;
37781;SDS011;23621;50.878;4.584;2023-06-14T14:17:46;6.45;;;2.17;;
37781;SDS011;23621;50.878;4.584;2023-06-14T14:20:34;1.67;;;1.58;;
37781;SDS011;23621;50.878;4.584;2023-06-14T14:23:21;2.97;;;1.95;;
37781;SDS011;23621;50.878;4.584;2023-06-14T14:26:08;1.60;;;1.50;;
37781;SDS011;23621;50.878;4.584;2023-06-14T14:28:56;2.00;;;1.80;;
37781;SDS011;23621;50.878;4.584;2023-06-14T14:31:43;3.78;;;1.73;;
37781;SDS011;23621;50.878;4.584;2023-06-14T14:34:31;2.28;;;1.98;;
37781;SDS011;23621;50.878;4.584;2023-06-14T14:37:18;3.65;;;2.03;;
37781;SDS011;23621;50.878;4.584;2023-06-14T14:40:05;4.00;;;1.70;;
37781;SDS011;23621;50.878;4.584;2023-06-14T14:42:55;1.77;;;1.67;;
37781;SDS011;23621;50.878;4.584;2023-06-14T14:45:42;3.60;;;1.98;;
37781;SDS011;23621;50.878;4.584;2023-06-14T14:48:29;3.55;;;1.90;;
37781;SDS011;23621;50.878;4.584;2023-06-14T14:51:17;2.30;;;1.92;;
37781;SDS011;23621;50.878;4.584;2023-06-14T14:54:04;1.80;;;1.70;;
37781;SDS011;23621;50.878;4.584;2023-06-14T14:56:52;4.07;;;2.15;;
37781;SDS011;23621;50.878;4.584;2023-06-14T14:59:39;3.33;;;2.15;;
37781;SDS011;23621;50.878;4.584;2023-06-14T15:02:26;2.30;;;2.10;;
37781;SDS011;23621;50.878;4.584;2023-06-14T15:05:14;2.40;;;2.20;;
37781;SDS011;23621;50.878;4.584;2023-06-14T15:08:01;2.10;;;1.90;;
37781;SDS011;23621;50.878;4.584;2023-06-14T15:10:48;4.22;;;2.40;;
37781;SDS011;23621;50.878;4.584;2023-06-14T15:13:36;2.92;;;2.20;;
37781;SDS011;23621;50.878;4.584;2023-06-14T15:16:23;4.63;;;2.28;;
37781;SDS011;23621;50.878;4.584;2023-06-14T15:19:11;6.57;;;2.47;;
37781;SDS011;23621;50.878;4.584;2023-06-14T15:21:58;6.28;;;2.50;;
37781;SDS011;23621;50.878;4.584;2023-06-14T15:24:45;2.97;;;1.90;;
37781;SDS011;23621;50.878;4.584;2023-06-14T15:27:36;5.47;;;2.45;;
37781;SDS011;23621;50.878;4.584;2023-06-14T15:30:23;3.15;;;2.03;;
37781;SDS011;23621;50.878;4.584;2023-06-14T15:33:10;2.10;;;1.90;;
37781;SDS011;23621;50.878;4.584;2023-06-14T15:35:58;3.65;;;2.22;;
37781;SDS011;23621;50.878;4.584;2023-06-14T15:38:45;2.88;;;2.22;;
37781;SDS011;23621;50.878;4.584;2023-06-14T15:41:32;2.78;;;2.13;;
37781;SDS011;23621;50.878;4.584;2023-06-14T15:44:19;3.35;;;2.08;;
37781;SDS011;23621;50.878;4.584;2023-06-14T15:47:07;3.05;;;2.20;;
37781;SDS011;23621;50.878;4.584;2023-06-14T15:49:55;3.08;;;1.90;;
37781;SDS011;23621;50.878;4.584;2023-06-14T15:52:42;5.93;;;2.40;;
37781;SDS011;23621;50.878;4.584;2023-06-14T15:55:29;2.30;;;2.10;;
37781;SDS011;23621;50.878;4.584;2023-06-14T15:58:16;2.30;;;2.03;;
37781;SDS011;23621;50.878;4.584;2023-06-14T16:01:04;4.60;;;2.10;;
37781;SDS011;23621;50.878;4.584;2023-06-14T16:03:51;4.13;;;2.33;;
37781;SDS011;23621;50.878;4.584;2023-06-14T16:06:38;6.10;;;2.20;;
37781;SDS011;23621;50.878;4.584;2023-06-14T16:09:26;2.00;;;1.90;;
37781;SDS011;23621;50.878;4.584;2023-06-14T16:12:13;2.97;;;2.00;;
37781;SDS011;23621;50.878;4.584;2023-06-14T16:15:00;2.20;;;2.00;;
37781;SDS011;23621;50.878;4.584;2023-06-14T16:17:48;4.03;;;2.03;;
37781;SDS011;23621;50.878;4.584;2023-06-14T16:20:35;3.38;;;1.77;;
37781;SDS011;23621;50.878;4.584;2023-06-14T16:23:22;2.40;;;1.88;;
37781;SDS011;23621;50.878;4.584;2023-06-14T16:26:10;2.65;;;2.03;;
37781;SDS011;23621;50.878;4.584;2023-06-14T16:29:01;2.00;;;1.80;;
37781;SDS011;23621;50.878;4.584;2023-06-14T16:31:49;2.17;;;1.98;;
37781;SDS011;23621;50.878;4.584;2023-06-14T16:34:36;3.13;;;2.00;;
37781;SDS011;23621;50.878;4.584;2023-06-14T16:37:23;3.25;;;1.90;;
37781;SDS011;23621;50.878;4.584;2023-06-14T16:40:11;3.97;;;2.00;;
37781;SDS011;23621;50.878;4.584;2023-06-14T16:42:58;3.17;;;2.00;;
37781;SDS011;23621;50.878;4.584;2023-06-14T16:45:45;3.75;;;2.08;;
37781;SDS011;23621;50.878;4.584;2023-06-14T16:48:33;3.15;;;1.95;;
37781;SDS011;23621;50.878;4.584;2023-06-14T16:51:20;3.47;;;1.58;;
37781;SDS011;23621;50.878;4.584;2023-06-14T16:54:07;2.83;;;1.60;;
37781;SDS011;23621;50.878;4.584;2023-06-14T16:56:55;2.92;;;1.63;;